Time;durP1;ratioP1;P1;durP2;ratioP2;P2;SDS_P1;SDS_P2;PMS_P1;PMS_P2;Temp;Humidity;BMP_temperature;BMP_pressure;BME280_temperature;BME280_humidity;BME280_pressure;Samples;Min_cycle;Max_cycle;Signal;HPM_P1;HPM_P2
2023/12/26 00:00:51;;;;;;;20.63;2.28;;;;;;;6.95;100.00;99654.69;4991391;28;20402;-96
2023/12/26 00:03:19;;;;;;;26.73;2.70;;;;;;;6.92;100.00;99651.50;5016761;28;20041;-96
2023/12/26 00:05:48;;;;;;;11.30;2.13;;;;;;;6.97;100.00;99653.69;5008587;28;20056;-96
2023/12/26 00:08:39;;;;;;;;;;;;;;;;;;;;;
2023/12/26 00:11:50;;;;;;;10.30;2.35;;;;;;;6.95;100.00;99651.22;4993880;28;20060;-96
2023/12/26 00:15:20;;;;;;;15.70;1.98;;;;;;;6.98;100.00;99664.06;5012075;28;20034;-96
2023/12/26 00:18:16;;;;;;;19.00;2.70;;;;;;;6.92;100.00;99656.75;5006088;28;20038;-96
2023/12/26 00:21:38;;;;;;;11.98;1.77;;;;;;;6.95;100.00;99669.59;5004507;28;20054;-89
2023/12/26 00:38:19;;;;;;;18.48;2.83;;;;;;;7.11;100.00;99681.31;4971959;28;20041;-96
2023/12/26 00:41:33;;;;;;;11.98;2.55;;;;;;;7.09;100.00;99676.22;4955363;28;20049;-96
2023/12/26 00:44:26;;;;;;;19.35;2.70;;;;;;;7.07;100.00;99672.91;4937626;28;20069;-95
2023/12/26 00:54:01;;;;;;;16.63;2.75;;;;;;;6.98;100.00;99695.59;4956041;28;20039;-96
2023/12/26 00:56:42;;;;;;;18.38;3.78;;;;;;;7.02;100.00;99699.63;4946939;28;20066;-96
2023/12/26 00:59:41;;;;;;;19.98;2.85;;;;;;;7.04;100.00;99702.09;4969405;28;20051;-95
2023/12/26 01:02:22;;;;;;;19.05;3.05;;;;;;;7.05;100.00;99716.91;4938013;28;20094;-96
2023/12/26 01:05:31;;;;;;;15.18;2.35;;;;;;;7.02;100.00;99702.25;4965525;28;20039;-96
2023/12/26 01:08:40;;;;;;;13.80;2.45;;;;;;;6.93;100.00;99711.78;4962480;28;20042;-95
2023/12/26 01:11:20;;;;;;;24.33;3.75;;;;;;;6.99;100.00;99713.00;4964407;28;20030;-96
2023/12/26 01:13:55;;;;;;;14.40;3.05;;;;;;;6.99;100.00;99722.72;4942756;28;20356;-96
2023/12/26 01:16:38;;;;;;;15.75;2.95;;;;;;;6.95;100.00;99717.72;4942696;28;20604;-95
2023/12/26 01:19:50;;;;;;;;;;;;;;;;;;;;;
2023/12/26 01:22:24;;;;;;;17.52;2.20;;;;;;;6.90;100.00;99734.84;4982804;28;20035;-96
2023/12/26 01:24:59;;;;;;;17.80;2.53;;;;;;;6.97;100.00;99743.88;4942279;28;20122;-95
2023/12/26 01:28:19;;;;;;;19.15;3.28;;;;;;;6.88;100.00;99740.25;4953994;28;20054;-96
2023/12/26 01:31:10;;;;;;;14.43;2.22;;;;;;;6.86;100.00;99751.88;4952613;28;20070;-95
2023/12/26 01:33:48;;;;;;;16.23;1.73;;;;;;;6.93;100.00;99763.47;4942481;28;20038;-95
2023/12/26 01:36:18;;;;;;;16.55;1.85;;;;;;;6.91;100.00;99774.13;4951960;28;20497;-96
2023/12/26 01:38:52;;;;;;;19.33;2.55;;;;;;;6.89;100.00;99773.47;4961865;28;20042;-96
2023/12/26 01:41:20;;;;;;;18.80;2.03;;;;;;;6.78;100.00;99776.19;4967505;28;20042;-94
2023/12/26 01:44:14;;;;;;;15.75;2.63;;;;;;;6.85;100.00;99769.41;4945027;28;20070;-96
2023/12/26 01:47:07;;;;;;;32.35;3.30;;;;;;;6.87;100.00;99792.94;4943217;28;20127;-95
2023/12/26 01:50:27;;;;;;;20.17;2.92;;;;;;;6.84;100.00;99794.03;4956443;28;20035;-95
2023/12/26 01:53:39;;;;;;;15.68;1.90;;;;;;;6.80;100.00;99805.81;4954315;28;20105;-96
2023/12/26 02:02:28;;;;;;;25.45;3.67;;;;;;;6.76;100.00;99821.00;4954883;28;20047;-96
2023/12/26 02:05:17;;;;;;;;;;;;;;;;;;;;;
2023/12/26 02:07:49;;;;;;;18.33;1.98;;;;;;;6.75;100.00;99840.34;4978018;28;20070;-96
2023/12/26 02:10:19;;;;;;;21.40;3.17;;;;;;;6.81;100.00;99852.94;4934016;28;20053;-95
2023/12/26 02:12:51;;;;;;;22.65;3.70;;;;;;;6.86;100.00;99856.97;4967546;28;20133;-96
2023/12/26 02:15:25;;;;;;;17.33;2.65;;;;;;;6.88;100.00;99852.41;4955902;28;20428;-96
2023/12/26 02:17:57;;;;;;;14.68;3.13;;;;;;;6.91;100.00;99865.28;4963572;28;20041;-96
2023/12/26 02:20:29;;;;;;;16.42;2.47;;;;;;;6.91;100.00;99865.28;4961997;28;20082;-95
2023/12/26 02:23:10;;;;;;;21.27;3.65;;;;;;;6.93;100.00;99874.66;4960977;28;20114;-94
2023/12/26 02:26:02;;;;;;;;;;;;;;;;;;;;;
2023/12/26 02:28:48;;;;;;;21.67;3.45;;;;;;;7.06;100.00;99884.94;4970475;28;20031;-96
2023/12/26 02:31:20;;;;;;;13.52;2.03;;;;;;;7.00;100.00;99892.53;4972787;28;20080;-96
2023/12/26 02:34:19;;;;;;;22.83;3.60;;;;;;;7.05;100.00;99893.78;4976664;28;20038;-96
2023/12/26 02:37:03;;;;;;;19.90;2.33;;;;;;;7.02;100.00;99890.59;4988025;28;20069;-96
2023/12/26 02:39:44;;;;;;;24.92;2.92;;;;;;;7.09;100.00;99910.09;4997134;28;20469;-92
2023/12/26 02:42:30;;;;;;;22.85;4.10;;;;;;;7.15;100.00;99914.00;4982234;28;20479;-95
2023/12/26 02:45:08;;;;;;;18.45;2.45;;;;;;;7.08;100.00;99926.84;4977006;28;20034;-96
2023/12/26 02:47:37;;;;;;;25.27;3.03;;;;;;;7.12;100.00;99924.78;4973418;28;20034;-94
2023/12/26 02:50:44;;;;;;;22.17;3.83;;;;;;;7.11;100.00;99929.22;5013249;28;20034;-94
2023/12/26 02:53:39;;;;;;;18.33;2.78;;;;;;;7.15;100.00;99938.47;4989925;28;20062;-95
2023/12/26 02:56:32;;;;;;;16.10;2.78;;;;;;;7.13;100.00;99935.16;4988557;28;20048;-95
2023/12/26 02:59:34;;;;;;;14.77;2.70;;;;;;;7.11;100.00;99931.00;4998675;28;20033;-95
2023/12/26 03:02:34;;;;;;;19.35;3.13;;;;;;;7.19;100.00;99939.88;4974394;28;20034;-95
2023/12/26 03:05:12;;;;;;;15.30;2.78;;;;;;;7.08;100.00;99950.50;4969675;28;20034;-95
2023/12/26 03:08:06;;;;;;;;;;;;;;;;;;;;;
2023/12/26 03:11:18;;;;;;;18.02;2.40;;;;;;;7.12;100.00;99966.84;5010572;28;20129;-95
2023/12/26 03:13:54;;;;;;;14.35;2.42;;;;;;;7.12;100.00;99967.66;4995651;28;20033;-95
2023/12/26 03:16:33;;;;;;;19.85;2.63;;;;;;;7.19;100.00;99981.09;4996686;28;20076;-95
2023/12/26 03:19:55;;;;;;;;;;;;;;;;;;;;;
2023/12/26 03:23:28;;;;;;;23.15;3.75;;;;;;;7.16;100.00;99976.13;4994262;28;20114;-96
2023/12/26 03:26:23;;;;;;;;;;;;;;;;;;;;;
2023/12/26 03:29:22;;;;;;;20.55;2.35;;;;;;;7.13;100.00;99971.97;5013969;28;20049;-94
2023/12/26 03:32:29;;;;;;;;;;;;;;;;;;;;;
2023/12/26 03:35:35;;;;;;;20.30;2.42;;;;;;;7.07;100.00;99981.19;5002732;28;20052;-96
2023/12/26 03:38:01;;;;;;;11.80;2.25;;;;;;;7.11;100.00;99991.44;4992131;28;20025;-96
2023/12/26 03:40:27;;;;;;;15.45;2.65;;;;;;;7.10;100.00;99998.50;4985725;28;20087;-96
2023/12/26 03:42:56;;;;;;;16.13;2.60;;;;;;;7.12;100.00;100006.28;4984773;28;20045;-96
2023/12/26 03:45:26;;;;;;;16.83;3.10;;;;;;;7.15;100.00;100012.06;4961859;28;20030;-96
2023/12/26 03:47:53;;;;;;;17.63;2.60;;;;;;;7.16;100.00;100010.28;4979660;28;20144;-95
2023/12/26 03:50:20;;;;;;;16.13;2.38;;;;;;;7.16;100.00;100007.66;4991191;28;20132;-96
2023/12/26 03:52:46;;;;;;;17.13;1.52;;;;;;;7.14;100.00;100013.03;4997510;28;20493;-96
2023/12/26 03:55:13;;;;;;;17.80;2.92;;;;;;;7.11;100.00;100009.84;4980542;28;20056;-96
2023/12/26 03:57:39;;;;;;;14.48;1.58;;;;;;;7.13;100.00;100018.44;4984167;28;20498;-96
2023/12/26 04:00:06;;;;;;;14.73;2.22;;;;;;;7.20;100.00;100028.28;4979586;28;20030;-94
2023/12/26 04:02:40;;;;;;;10.48;1.73;;;;;;;7.17;100.00;100031.19;5005728;28;20033;-95
2023/12/26 04:05:08;;;;;;;13.32;2.05;;;;;;;7.16;100.00;100041.81;4995211;28;20414;-95
2023/12/26 04:07:35;;;;;;;13.40;2.33;;;;;;;7.17;100.00;100043.47;5004045;28;20022;-94
2023/12/26 04:10:01;;;;;;;13.10;2.13;;;;;;;7.17;100.00;100046.94;5010517;28;20026;-94
2023/12/26 04:12:29;;;;;;;8.43;1.42;;;;;;;7.16;100.00;100055.81;4981662;28;20076;-94
2023/12/26 04:14:55;;;;;;;14.05;2.20;;;;;;;7.18;100.00;100061.75;5006557;28;20034;-95
2023/12/26 04:17:21;;;;;;;8.23;1.75;;;;;;;7.17;100.00;100056.63;4991849;28;20109;-94
2023/12/26 04:19:48;;;;;;;7.85;1.25;;;;;;;7.15;100.00;100066.44;4999279;28;20560;-95
2023/12/26 04:22:14;;;;;;;5.43;1.40;;;;;;;7.09;100.00;100065.16;4980504;28;20030;-95
2023/12/26 04:24:41;;;;;;;8.05;2.22;;;;;;;7.03;100.00;100068.31;4996017;28;20470;-94
2023/12/26 04:27:07;;;;;;;10.57;1.75;;;;;;;7.04;100.00;100072.63;4965722;28;20038;-94
2023/12/26 04:29:33;;;;;;;9.13;1.10;;;;;;;7.03;100.00;100079.66;4978250;28;20056;-94
2023/12/26 04:31:59;;;;;;;6.88;1.10;;;;;;;6.99;100.00;100087.94;5003190;28;20109;-95
2023/12/26 04:34:25;;;;;;;9.00;0.90;;;;;;;6.97;100.00;100090.69;4994621;28;20042;-95
2023/12/26 04:36:51;;;;;;;9.80;1.20;;;;;;;7.03;100.00;100098.06;4991290;28;20112;-95
2023/12/26 04:39:17;;;;;;;9.50;1.42;;;;;;;7.04;100.00;100093.66;4991942;28;20092;-94
2023/12/26 04:41:46;;;;;;;4.25;0.88;;;;;;;7.05;100.00;100095.31;4978086;28;20489;-95
2023/12/26 04:44:12;;;;;;;11.30;1.13;;;;;;;7.00;100.00;100100.09;4983822;28;20038;-94
2023/12/26 04:46:38;;;;;;;8.65;1.48;;;;;;;6.98;100.00;100092.34;4978335;28;20042;-94
2023/12/26 04:49:04;;;;;;;4.70;1.02;;;;;;;7.01;100.00;100105.22;5002688;28;20470;-95
2023/12/26 04:51:30;;;;;;;8.90;0.90;;;;;;;7.01;100.00;100102.59;4983992;28;20038;-95
2023/12/26 04:53:57;;;;;;;7.95;1.13;;;;;;;7.03;100.00;100105.09;4980742;28;20025;-94
2023/12/26 04:56:23;;;;;;;9.48;0.77;;;;;;;7.02;100.00;100111.34;4986156;28;20184;-95
2023/12/26 04:58:51;;;;;;;9.32;1.25;;;;;;;7.01;100.00;100107.03;4965031;28;20026;-95
2023/12/26 05:01:18;;;;;;;11.75;1.38;;;;;;;6.92;100.00;100108.63;4988243;28;20121;-95
2023/12/26 05:03:44;;;;;;;6.63;0.85;;;;;;;6.80;100.00;100103.44;4978728;28;20524;-94
2023/12/26 05:06:11;;;;;;;14.65;0.95;;;;;;;6.77;100.00;100108.16;4992355;28;20041;-95
2023/12/26 05:08:38;;;;;;;8.02;0.80;;;;;;;6.75;100.00;100112.69;4980696;28;20021;-95
2023/12/26 05:11:05;;;;;;;7.13;0.77;;;;;;;6.65;100.00;100116.06;4996461;28;20041;-95
2023/12/26 05:13:36;;;;;;;4.80;0.80;;;;;;;6.58;100.00;100118.38;4999324;28;20029;-95
2023/12/26 05:16:03;;;;;;;6.38;1.05;;;;;;;6.52;100.00;100121.50;4993992;28;20091;-95
2023/12/26 05:18:30;;;;;;;6.15;1.45;;;;;;;6.49;100.00;100131.41;4981392;28;20026;-94
2023/12/26 05:20:56;;;;;;;7.85;1.15;;;;;;;6.38;100.00;100137.53;4984430;28;20023;-94
2023/12/26 05:23:22;;;;;;;10.38;1.23;;;;;;;6.31;100.00;100138.03;5006767;28;20100;-94
2023/12/26 05:25:48;;;;;;;14.35;2.17;;;;;;;6.29;100.00;100144.38;4977767;28;20104;-94
2023/12/26 05:28:14;;;;;;;7.78;2.03;;;;;;;6.25;100.00;100148.19;4991708;28;20058;-94
2023/12/26 05:30:40;;;;;;;11.35;1.88;;;;;;;6.18;100.00;100150.50;5009668;28;20100;-95
2023/12/26 05:33:06;;;;;;;8.50;1.02;;;;;;;6.12;100.00;100156.22;4978710;28;20081;-95
2023/12/26 05:35:32;;;;;;;9.43;1.67;;;;;;;6.02;100.00;100162.16;4992659;28;20034;-95
2023/12/26 05:37:58;;;;;;;7.15;1.25;;;;;;;5.94;100.00;100161.97;5016687;28;20041;-94
2023/12/26 05:40:24;;;;;;;11.70;1.40;;;;;;;5.82;100.00;100167.22;4977086;28;20041;-95
2023/12/26 05:42:50;;;;;;;14.70;1.92;;;;;;;5.73;100.00;100167.94;4975754;28;20375;-95
2023/12/26 05:45:17;;;;;;;8.85;1.73;;;;;;;5.69;100.00;100169.09;4991342;28;20069;-94
2023/12/26 05:47:43;;;;;;;15.02;1.50;;;;;;;5.71;100.00;100177.69;4993452;28;20034;-95
2023/12/26 05:50:09;;;;;;;7.03;1.35;;;;;;;5.67;100.00;100174.47;4977885;28;20129;-94
2023/12/26 05:52:35;;;;;;;12.82;1.80;;;;;;;5.68;100.00;100185.81;4994309;28;20401;-94
2023/12/26 05:55:01;;;;;;;6.47;1.05;;;;;;;5.67;100.00;100186.75;4977812;28;20034;-95
2023/12/26 05:57:27;;;;;;;6.57;1.33;;;;;;;5.66;100.00;100185.91;4973769;28;20041;-94
2023/12/26 05:59:53;;;;;;;13.43;1.27;;;;;;;5.67;100.00;100195.44;5005355;28;20045;-94
2023/12/26 06:02:19;;;;;;;11.13;1.00;;;;;;;5.67;100.00;100197.25;4970730;28;20026;-95
2023/12/26 06:04:45;;;;;;;5.57;1.30;;;;;;;5.66;100.00;100208.69;5021576;28;20053;-95
2023/12/26 06:07:12;;;;;;;10.38;1.67;;;;;;;5.65;100.00;100220.13;4988712;28;20030;-94
2023/12/26 06:09:38;;;;;;;11.18;1.40;;;;;;;5.64;100.00;100226.34;4975955;28;20095;-94
2023/12/26 06:12:05;;;;;;;12.50;1.17;;;;;;;5.64;100.00;100231.56;4988565;28;20030;-94
2023/12/26 06:14:31;;;;;;;9.52;1.13;;;;;;;5.64;100.00;100234.19;4985880;28;20026;-95
2023/12/26 06:16:59;;;;;;;12.13;1.73;;;;;;;5.63;100.00;100235.13;4995034;28;20351;-94
2023/12/26 06:19:25;;;;;;;8.43;1.17;;;;;;;5.61;100.00;100240.50;4987880;28;20488;-94
2023/12/26 06:21:51;;;;;;;10.13;1.85;;;;;;;5.57;100.00;100242.50;4990135;28;20025;-95
2023/12/26 06:24:17;;;;;;;11.70;1.25;;;;;;;5.55;100.00;100240.97;4994075;28;20037;-95
2023/12/26 06:26:42;;;;;;;10.75;1.25;;;;;;;5.54;100.00;100244.56;5008668;28;20112;-95
2023/12/26 06:29:09;;;;;;;13.57;1.40;;;;;;;5.51;100.00;100248.22;4976587;28;20030;-94
2023/12/26 06:31:34;;;;;;;10.02;1.20;;;;;;;5.49;100.00;100249.28;4976248;28;20023;-95
2023/12/26 06:34:01;;;;;;;12.85;1.45;;;;;;;5.46;100.00;100255.63;5011805;28;20041;-94
2023/12/26 06:36:32;;;;;;;13.13;1.42;;;;;;;5.48;100.00;100271.22;4982622;28;20117;-94
2023/12/26 06:39:00;;;;;;;11.18;1.52;;;;;;;5.43;100.00;100267.16;4981810;28;20725;-95
2023/12/26 06:41:30;;;;;;;10.55;1.52;;;;;;;5.42;100.00;100273.34;4978530;28;20035;-95
2023/12/26 06:43:56;;;;;;;11.43;1.70;;;;;;;5.38;100.00;100286.81;4978738;28;20113;-94
2023/12/26 06:46:22;;;;;;;11.15;1.70;;;;;;;5.39;100.00;100298.94;4985238;28;20026;-94
2023/12/26 06:48:48;;;;;;;8.27;1.35;;;;;;;5.43;100.00;100310.91;5007341;28;20034;-94
2023/12/26 06:51:15;;;;;;;12.88;1.98;;;;;;;5.42;100.00;100310.06;4998886;28;20022;-95
2023/12/26 06:53:42;;;;;;;10.60;1.27;;;;;;;5.41;100.00;100307.53;4994064;28;20485;-94
2023/12/26 06:56:08;;;;;;;10.65;1.70;;;;;;;5.44;100.00;100315.19;4982293;28;20045;-94
2023/12/26 06:58:34;;;;;;;11.00;1.00;;;;;;;5.46;100.00;100315.91;4994945;28;20034;-95
2023/12/26 07:01:01;;;;;;;9.00;1.33;;;;;;;5.48;100.00;100316.63;4979259;28;20022;-94
2023/12/26 07:03:27;;;;;;;9.13;1.30;;;;;;;5.44;100.00;100323.03;4989486;28;20033;-94
2023/12/26 07:05:53;;;;;;;14.45;1.15;;;;;;;5.44;100.00;100328.28;4979128;28;20030;-94
2023/12/26 07:08:19;;;;;;;9.85;1.35;;;;;;;5.42;100.00;100328.41;4974203;28;20081;-94
2023/12/26 07:10:46;;;;;;;15.20;2.28;;;;;;;5.37;100.00;100327.09;5003171;28;20045;-94
2023/12/26 07:13:12;;;;;;;6.78;1.05;;;;;;;5.32;100.00;100330.84;4992309;28;20422;-94
2023/12/26 07:15:38;;;;;;;2.85;2.05;;;;;;;5.28;100.00;100345.16;4981364;28;20030;-94
2023/12/26 07:18:04;;;;;;;11.95;1.10;;;;;;;5.21;100.00;100346.53;4978668;28;20186;-93
2023/12/26 07:20:29;;;;;;;10.20;1.52;;;;;;;5.15;100.00;100349.59;4975550;28;20041;-93
2023/12/26 07:22:55;;;;;;;4.75;1.40;;;;;;;5.05;100.00;100352.03;4970786;28;20486;-95
2023/12/26 07:25:21;;;;;;;10.82;1.52;;;;;;;5.01;100.00;100351.44;4981037;28;20026;-94
2023/12/26 07:27:47;;;;;;;6.93;1.00;;;;;;;4.95;100.00;100357.13;4982648;28;20041;-95
2023/12/26 07:30:13;;;;;;;7.32;0.73;;;;;;;4.92;100.00;100363.41;4997534;28;20108;-94
2023/12/26 07:32:38;;;;;;;8.15;1.42;;;;;;;4.95;100.00;100370.22;4982553;28;20093;-94
2023/12/26 07:35:04;;;;;;;7.80;1.20;;;;;;;4.95;100.00;100363.19;4996082;28;20382;-94
2023/12/26 07:37:32;;;;;;;8.18;1.00;;;;;;;5.01;100.00;100374.16;5002233;28;20600;-94
2023/12/26 07:39:58;;;;;;;17.08;1.63;;;;;;;4.98;100.00;100370.00;4991172;28;20072;-94
2023/12/26 07:42:23;;;;;;;8.73;1.38;;;;;;;4.99;100.00;100384.75;4978147;28;20070;-94
2023/12/26 07:44:49;;;;;;;7.93;0.90;;;;;;;4.92;100.00;100386.16;5002380;28;20037;-94
2023/12/26 07:47:15;;;;;;;7.40;1.60;;;;;;;4.87;100.00;100383.88;4996358;28;20121;-89
2023/12/26 07:49:41;;;;;;;7.38;0.90;;;;;;;4.81;100.00;100379.88;5004978;28;20356;-94
2023/12/26 07:52:07;;;;;;;10.27;1.20;;;;;;;4.66;100.00;100373.09;4998550;28;20037;-94
2023/12/26 07:54:33;;;;;;;13.55;1.27;;;;;;;4.52;100.00;100377.53;4997146;28;20061;-94
2023/12/26 07:56:58;;;;;;;5.55;1.02;;;;;;;4.44;100.00;100377.22;4969956;28;20426;-92
2023/12/26 07:59:24;;;;;;;4.63;1.05;;;;;;;4.46;100.00;100380.56;4977496;28;20076;-94
2023/12/26 08:01:50;;;;;;;5.88;0.80;;;;;;;4.49;100.00;100372.50;4979648;28;20030;-89
2023/12/26 08:04:16;;;;;;;5.03;0.75;;;;;;;4.51;100.00;100373.22;4996264;28;20045;-94
2023/12/26 08:06:41;;;;;;;9.43;1.13;;;;;;;4.49;100.00;100372.50;4980899;28;20041;-94
2023/12/26 08:09:08;;;;;;;8.88;1.05;;;;;;;4.41;100.00;100369.59;4988549;28;20030;-94
2023/12/26 08:11:35;;;;;;;5.72;1.27;;;;;;;4.40;100.00;100375.75;4992511;28;20478;-94
2023/12/26 08:14:01;;;;;;;6.95;1.10;;;;;;;4.26;100.00;100381.94;4988084;28;20116;-92
2023/12/26 08:16:26;;;;;;;7.82;1.27;;;;;;;4.21;100.00;100393.56;4978384;28;20569;-94
2023/12/26 08:18:54;;;;;;;10.48;1.20;;;;;;;4.09;100.00;100397.00;4977569;28;20026;-93
2023/12/26 08:21:20;;;;;;;5.85;1.52;;;;;;;3.95;100.00;100397.94;5004397;28;20034;-94
2023/12/26 08:23:46;;;;;;;7.47;1.15;;;;;;;3.96;100.00;100403.06;4979858;28;20393;-94
2023/12/26 08:26:11;;;;;;;5.65;1.08;;;;;;;3.99;100.00;100402.00;4999045;28;20045;-94
2023/12/26 08:28:37;;;;;;;4.25;0.65;;;;;;;4.08;100.00;100406.63;5001787;28;20033;-93
2023/12/26 08:31:03;;;;;;;9.10;0.77;;;;;;;4.11;100.00;100417.84;4988300;28;20033;-94
2023/12/26 08:33:31;;;;;;;9.75;0.85;;;;;;;4.16;100.00;100427.03;4978852;28;20038;-94
2023/12/26 08:35:57;;;;;;;4.97;0.85;;;;;;;4.20;100.00;100427.69;5002937;28;20029;-94
2023/12/26 08:38:23;;;;;;;10.23;1.42;;;;;;;4.21;100.00;100427.56;4998434;28;20089;-94
2023/12/26 08:40:50;;;;;;;9.55;1.95;;;;;;;4.20;100.00;100415.41;4995523;28;20087;-94
2023/12/26 08:43:16;;;;;;;11.00;2.15;;;;;;;4.20;100.00;100422.44;4979574;28;20026;-94
2023/12/26 08:45:42;;;;;;;8.38;1.10;;;;;;;4.19;100.00;100420.75;4989087;28;20029;-94
2023/12/26 08:48:09;;;;;;;8.27;1.38;;;;;;;4.22;100.00;100431.84;4995775;28;20037;-94
2023/12/26 08:50:35;;;;;;;4.72;0.90;;;;;;;4.18;100.00;100430.41;4990011;28;20029;-94
2023/12/26 08:53:01;;;;;;;11.27;1.38;;;;;;;4.19;100.00;100444.28;4997027;28;20048;-94
2023/12/26 08:55:27;;;;;;;8.68;0.98;;;;;;;4.16;100.00;100452.34;4980171;28;20457;-94
2023/12/26 08:57:53;;;;;;;10.70;1.20;;;;;;;4.12;100.00;100448.28;4982690;28;20108;-94
2023/12/26 09:00:19;;;;;;;3.42;0.88;;;;;;;4.11;100.00;100454.47;4974649;28;20034;-94
2023/12/26 09:02:45;;;;;;;6.80;2.13;;;;;;;4.07;100.00;100467.75;4992755;28;20351;-94
2023/12/26 09:05:11;;;;;;;2.90;0.52;;;;;;;4.06;100.00;100473.06;4993849;28;20033;-94
2023/12/26 09:07:37;;;;;;;2.67;0.68;;;;;;;4.04;100.00;100488.88;4979601;28;20067;-94
2023/12/26 09:10:07;;;;;;;4.10;0.60;;;;;;;4.04;100.00;100488.88;5013021;28;20034;-93
2023/12/26 09:12:32;;;;;;;3.15;1.15;;;;;;;3.99;100.00;100490.94;4979914;28;20148;-94
2023/12/26 09:14:58;;;;;;;6.35;0.85;;;;;;;4.00;100.00;100495.22;4988096;28;20114;-94
2023/12/26 09:17:24;;;;;;;3.72;0.90;;;;;;;3.95;100.00;100485.06;5011672;28;20038;-93
2023/12/26 09:19:50;;;;;;;7.15;0.90;;;;;;;3.94;100.00;100482.53;4990184;28;20037;-93
2023/12/26 09:22:16;;;;;;;6.32;0.70;;;;;;;3.94;100.00;100482.53;4995028;28;20034;-93
2023/12/26 09:24:43;;;;;;;3.70;0.68;;;;;;;3.97;100.00;100479.72;4993576;28;20049;-94
2023/12/26 09:27:09;;;;;;;4.85;0.93;;;;;;;3.97;100.00;100487.56;4976760;28;20497;-93
2023/12/26 09:29:35;;;;;;;6.22;0.98;;;;;;;3.97;100.00;100488.41;4991058;28;20551;-94
2023/12/26 09:32:01;;;;;;;4.63;1.05;;;;;;;3.92;100.00;100472.19;4967000;28;20122;-93
2023/12/26 09:34:27;;;;;;;8.57;0.98;;;;;;;3.92;100.00;100477.41;4968631;28;20045;-95
2023/12/26 09:36:53;;;;;;;8.77;1.13;;;;;;;3.96;100.00;100476.28;4971622;28;20475;-94
2023/12/26 09:39:19;;;;;;;3.75;0.70;;;;;;;3.91;100.00;100475.75;4989388;28;20050;-94
2023/12/26 09:41:52;;;;;;;4.78;1.48;;;;;;;3.99;100.00;100484.84;4968984;28;20042;-94
2023/12/26 09:44:20;;;;;;;4.63;1.42;;;;;;;4.00;100.00;100489.16;4967841;28;20033;-94
2023/12/26 09:46:47;;;;;;;6.70;0.70;;;;;;;4.05;100.00;100490.53;4975859;28;20054;-89
2023/12/26 09:49:15;;;;;;;5.70;1.00;;;;;;;4.11;100.00;100486.66;4967045;28;20030;-94
2023/12/26 09:51:44;;;;;;;6.05;0.90;;;;;;;4.16;100.00;100496.81;4952188;28;20030;-94
2023/12/26 09:54:12;;;;;;;2.85;0.60;;;;;;;4.16;100.00;100502.06;4978783;28;20150;-95
2023/12/26 09:56:42;;;;;;;4.53;1.00;;;;;;;4.20;100.00;100511.41;4982070;28;20042;-95
2023/12/26 09:59:16;;;;;;;5.20;0.60;;;;;;;4.26;100.00;100518.84;4987465;28;20051;-95
2023/12/26 10:01:45;;;;;;;6.32;0.60;;;;;;;4.34;100.00;100520.94;4970573;28;20038;-94
2023/12/26 10:04:11;;;;;;;4.78;1.05;;;;;;;4.30;100.00;100519.47;4978517;28;20042;-93
2023/12/26 10:06:37;;;;;;;4.95;0.88;;;;;;;4.29;100.00;100528.25;4958395;28;20053;-94
2023/12/26 10:09:02;;;;;;;6.53;0.80;;;;;;;4.32;100.00;100528.06;4995325;28;20034;-94
2023/12/26 10:11:28;;;;;;;10.38;1.35;;;;;;;4.31;100.00;100522.00;4976962;28;20142;-94
2023/12/26 10:13:55;;;;;;;10.60;0.95;;;;;;;4.35;100.00;100517.38;4975688;28;20077;-93
2023/12/26 10:16:21;;;;;;;6.50;0.65;;;;;;;4.35;100.00;100512.16;4970121;28;20045;-94
2023/12/26 10:18:50;;;;;;;7.63;1.08;;;;;;;4.40;100.00;100517.91;4977098;28;20038;-94
2023/12/26 10:21:17;;;;;;;7.65;0.82;;;;;;;4.39;100.00;100512.78;4973576;28;20039;-94
2023/12/26 10:23:44;;;;;;;5.10;0.70;;;;;;;4.46;100.00;100508.81;4987982;28;20118;-94
2023/12/26 10:26:09;;;;;;;5.43;0.57;;;;;;;4.47;100.00;100508.69;4980096;28;20050;-94
2023/12/26 10:28:39;;;;;;;5.65;1.10;;;;;;;4.46;100.00;100520.13;4981475;28;20038;-94
2023/12/26 10:31:18;;;;;;;9.60;2.60;;;;;;;4.38;100.00;100530.25;4982403;28;20051;-94
2023/12/26 10:33:44;;;;;;;8.85;2.92;;;;;;;4.34;100.00;100534.88;4973217;28;20065;-93
2023/12/26 10:36:10;;;;;;;13.52;3.55;;;;;;;4.41;100.00;100530.06;4981622;28;20463;-93
2023/12/26 10:38:39;;;;;;;11.75;3.45;;;;;;;4.44;100.00;100526.41;4970644;28;20034;-94
2023/12/26 10:41:14;;;;;;;9.25;4.30;;;;;;;4.52;100.00;100534.59;4989390;28;20030;-95
2023/12/26 10:43:41;;;;;;;13.27;4.40;;;;;;;4.55;100.00;100550.09;4970870;28;20117;-94
2023/12/26 10:46:07;;;;;;;13.10;6.30;;;;;;;4.54;100.00;100543.16;4988778;28;20038;-94
2023/12/26 10:48:34;;;;;;;13.00;4.10;;;;;;;4.58;100.00;100549.03;4973843;28;20026;-92
2023/12/26 10:51:01;;;;;;;8.90;3.83;;;;;;;4.51;100.00;100540.75;4978521;28;20031;-94
2023/12/26 10:53:43;;;;;;;12.02;3.75;;;;;;;4.55;100.00;100531.78;4972882;28;20050;-94
2023/12/26 10:56:13;;;;;;;6.95;2.58;;;;;;;4.58;100.00;100531.56;4971023;28;20395;-93
2023/12/26 10:58:40;;;;;;;8.75;2.63;;;;;;;4.71;100.00;100533.34;4983478;28;20383;-94
2023/12/26 13:54:21;;;;;;;6.57;2.67;;;;;;;5.72;100.00;100397.03;4930832;28;20058;-95
2023/12/26 13:56:46;;;;;;;13.00;3.47;;;;;;;5.77;100.00;100400.16;4932468;28;20137;-94
2023/12/26 13:59:50;;;;;;;10.43;2.63;;;;;;;5.84;100.00;100390.88;4943683;28;20393;-95
2023/12/26 14:02:53;;;;;;;10.90;3.85;;;;;;;5.77;100.00;100384.41;4938935;28;20053;-95
2023/12/26 14:05:19;;;;;;;11.77;4.75;;;;;;;5.70;100.00;100375.34;4937490;28;20082;-95
2023/12/26 14:07:46;;;;;;;17.38;5.45;;;;;;;5.73;100.00;100371.66;4919216;29;20042;-95
2023/12/26 14:10:50;;;;;;;16.75;6.00;;;;;;;5.83;100.00;100356.88;4915431;28;20039;-95
2023/12/26 14:13:16;;;;;;;16.90;5.13;;;;;;;5.77;100.00;100358.19;4945413;28;20077;-95
2023/12/26 14:15:42;;;;;;;8.20;3.95;;;;;;;5.74;100.00;100349.69;4932697;29;20035;-95
2023/12/26 14:18:45;;;;;;;11.10;3.50;;;;;;;5.70;100.00;100347.31;4958747;28;20183;-95
2023/12/26 14:21:48;;;;;;;8.75;2.50;;;;;;;5.70;100.00;100333.38;4948226;28;20097;-95
2023/12/26 14:24:14;;;;;;;10.55;3.08;;;;;;;5.68;100.00;100332.66;4932817;29;20051;-95
2023/12/26 14:27:17;;;;;;;12.52;3.20;;;;;;;5.77;100.00;100342.44;4911602;28;20023;-95
2023/12/26 14:30:21;;;;;;;10.95;3.30;;;;;;;5.80;100.00;100339.59;4946136;28;20574;-95
2023/12/26 14:32:47;;;;;;;8.88;2.80;;;;;;;5.75;100.00;100333.84;4970142;28;20034;-95
2023/12/26 14:35:13;;;;;;;6.25;2.97;;;;;;;5.75;100.00;100328.59;4985330;28;20037;-95
2023/12/26 14:38:16;;;;;;;7.63;2.78;;;;;;;5.82;100.00;100324.59;4973090;28;20136;-95
2023/12/26 14:41:19;;;;;;;12.05;3.50;;;;;;;5.86;100.00;100326.97;4968152;28;20051;-96
2023/12/26 14:43:45;;;;;;;6.50;2.63;;;;;;;5.83;100.00;100320.16;4975229;28;20057;-96
2023/12/26 14:46:49;;;;;;;7.50;2.42;;;;;;;5.92;100.00;100326.50;4973458;28;20482;-94
2023/12/26 14:49:52;;;;;;;11.90;3.70;;;;;;;5.92;100.00;100316.00;4987434;28;20043;-95
2023/12/26 14:52:18;;;;;;;10.85;3.35;;;;;;;5.81;100.00;100306.34;4986600;28;20052;-95
2023/12/26 14:55:21;;;;;;;10.82;4.53;;;;;;;5.80;100.00;100304.66;4968705;28;20474;-95
2023/12/26 14:58:24;;;;;;;11.38;4.38;;;;;;;5.73;100.00;100299.06;4987779;28;20173;-95
2023/12/26 15:00:50;;;;;;;12.20;4.40;;;;;;;5.68;100.00;100293.31;4987212;28;20085;-93
2023/12/26 15:03:16;;;;;;;12.73;4.45;;;;;;;5.67;100.00;100302.16;4984239;28;20046;-94
2023/12/26 15:05:42;;;;;;;11.13;4.50;;;;;;;5.65;100.00;100286.53;4955921;28;20038;-94
2023/12/26 15:08:13;;;;;;;12.95;5.22;;;;;;;5.63;100.00;100290.19;4976204;28;20030;-95
2023/12/26 15:10:39;;;;;;;10.65;6.15;;;;;;;5.65;100.00;100288.31;4973026;28;20093;-94
2023/12/26 15:13:06;;;;;;;12.57;6.07;;;;;;;5.63;100.00;100288.41;4991603;28;20891;-95
2023/12/26 15:15:34;;;;;;;12.65;5.68;;;;;;;5.54;100.00;100284.69;4987732;28;20034;-95
2023/12/26 15:18:03;;;;;;;12.98;6.57;;;;;;;5.47;100.00;100283.50;4990306;28;20092;-94
2023/12/26 15:20:29;;;;;;;13.30;6.72;;;;;;;5.45;100.00;100283.59;4999986;28;20038;-96
2023/12/26 15:22:54;;;;;;;15.38;6.15;;;;;;;5.41;100.00;100284.81;4977329;28;20050;-95